Time;durP1;ratioP1;P1;durP2;ratioP2;P2;SDS_P1;SDS_P2;PMS_P1;PMS_P2;Temp;Humidity;BMP_temperature;BMP_pressure;BME280_temperature;BME280_humidity;BME280_pressure;Samples;Min_cycle;Max_cycle;Signal;HPM_P1;HPM_P2
2024/02/12 00:02:03;;;;;;;13.17;1.37;;;9.20;99.90;;;;;;5058958;28;20168;-81
2024/02/12 00:04:29;;;;;;;14.93;1.55;;;9.20;99.90;;;;;;5076670;28;20526;-81
2024/02/12 00:06:57;;;;;;;14.90;1.97;;;9.20;99.90;;;;;;5076477;28;20165;-81
2024/02/12 00:09:26;;;;;;;15.00;2.03;;;9.20;99.90;;;;;;5076848;28;20395;-81
2024/02/12 00:11:54;;;;;;;14.27;2.00;;;9.10;99.90;;;;;;5058330;28;20172;-81
2024/02/12 00:14:22;;;;;;;13.98;1.50;;;9.10;99.90;;;;;;5076713;28;20161;-81
2024/02/12 00:16:47;;;;;;;16.42;2.28;;;9.10;99.90;;;;;;5058717;28;20234;-81
2024/02/12 00:19:13;;;;;;;14.47;1.50;;;9.10;99.90;;;;;;5077132;28;20164;-81
2024/02/12 00:21:39;;;;;;;13.67;1.70;;;9.10;99.90;;;;;;5058697;28;20188;-82
2024/02/12 00:24:06;;;;;;;14.47;1.93;;;9.20;99.90;;;;;;5058441;28;20821;-82
2024/02/12 00:26:32;;;;;;;14.32;2.03;;;9.10;99.90;;;;;;5076149;28;20184;-81
2024/02/12 00:28:58;;;;;;;15.18;1.92;;;9.10;99.90;;;;;;5058376;28;20589;-81
2024/02/12 00:31:26;;;;;;;15.38;1.48;;;9.10;99.90;;;;;;5076023;28;20204;-82
2024/02/12 00:33:54;;;;;;;14.60;1.75;;;9.10;99.90;;;;;;5058312;28;20636;-81
2024/02/12 00:36:20;;;;;;;14.32;1.92;;;9.00;99.90;;;;;;5076093;28;20525;-82
2024/02/12 00:38:47;;;;;;;14.43;2.10;;;9.10;99.90;;;;;;5075851;28;20283;-82
2024/02/12 00:41:14;;;;;;;15.73;2.03;;;9.10;99.90;;;;;;5075704;28;20283;-81
2024/02/12 00:43:43;;;;;;;14.80;2.00;;;9.00;99.90;;;;;;5075744;28;20506;-82
2024/02/12 00:46:10;;;;;;;15.25;2.15;;;8.90;99.90;;;;;;5075856;28;20244;-82
2024/02/12 00:48:36;;;;;;;14.30;1.83;;;8.80;99.90;;;;;;5075602;28;20188;-81
2024/02/12 00:51:02;;;;;;;15.82;2.30;;;8.90;99.90;;;;;;5075402;28;20222;-82
2024/02/12 00:53:28;;;;;;;15.10;2.20;;;8.90;99.90;;;;;;5057852;28;20207;-82
2024/02/12 00:55:55;;;;;;;22.17;3.13;;;8.90;99.90;;;;;;5075345;28;20187;-82
2024/02/12 00:58:22;;;;;;;21.77;3.22;;;9.00;99.90;;;;;;5075266;28;20245;-82
2024/02/12 01:00:50;;;;;;;15.68;3.05;;;9.10;99.90;;;;;;5057434;28;20658;-82
2024/02/12 01:03:16;;;;;;;16.13;3.05;;;9.10;99.90;;;;;;5075386;28;20246;-82
2024/02/12 01:05:43;;;;;;;17.85;3.30;;;9.10;99.90;;;;;;5075264;28;20173;-82
2024/02/12 01:08:09;;;;;;;17.38;3.15;;;9.10;99.90;;;;;;5057559;28;20191;-82
2024/02/12 01:10:35;;;;;;;14.97;3.10;;;9.20;99.90;;;;;;5075271;28;20157;-82
2024/02/12 01:13:01;;;;;;;18.92;3.85;;;9.20;99.90;;;;;;5074855;28;20223;-82
2024/02/12 01:15:27;;;;;;;17.13;3.17;;;9.20;99.90;;;;;;5075324;28;20160;-82
2024/02/12 01:17:53;;;;;;;18.60;4.07;;;9.20;99.90;;;;;;5075376;28;20446;-82
2024/02/12 01:20:22;;;;;;;18.25;4.20;;;9.20;99.90;;;;;;5075553;28;20470;-81
2024/02/12 01:22:49;;;;;;;19.40;3.80;;;9.30;99.90;;;;;;5074954;28;20153;-82
2024/02/12 01:25:17;;;;;;;17.63;3.60;;;9.20;99.90;;;;;;5056706;28;20259;-81
2024/02/12 01:27:43;;;;;;;17.92;3.60;;;9.20;99.90;;;;;;5074736;28;20187;-81
2024/02/12 01:30:09;;;;;;;16.90;3.20;;;9.30;99.90;;;;;;5074760;28;20556;-82
2024/02/12 01:32:35;;;;;;;16.73;3.42;;;9.20;99.90;;;;;;5074829;28;20167;-81
2024/02/12 01:35:01;;;;;;;15.53;3.30;;;9.20;99.90;;;;;;5056582;28;20173;-81
2024/02/12 01:37:27;;;;;;;19.30;4.00;;;9.20;99.90;;;;;;5056691;28;20278;-81
2024/02/12 01:39:53;;;;;;;17.10;3.70;;;9.20;99.90;;;;;;5055944;28;20456;-81
2024/02/12 01:42:19;;;;;;;16.08;3.70;;;9.20;99.90;;;;;;5074638;28;20534;-81
2024/02/12 01:45:17;;;;;;;18.13;3.10;;;9.20;99.90;;;;;;5074814;28;20172;-82
2024/02/12 01:47:44;;;;;;;20.50;3.47;;;9.20;99.90;;;;;;5057333;28;20422;-82
2024/02/12 01:50:15;;;;;;;18.60;3.67;;;9.20;99.90;;;;;;5075563;28;20566;-82
2024/02/12 01:52:48;;;;;;;15.65;3.13;;;9.10;99.90;;;;;;5075051;28;20149;-82
2024/02/12 01:55:16;;;;;;;21.30;4.65;;;9.10;99.90;;;;;;5074433;28;20152;-81
2024/02/12 01:57:50;;;;;;;19.73;5.30;;;9.10;99.90;;;;;;5074741;28;20195;-81
2024/02/12 02:00:17;;;;;;;17.45;4.80;;;9.20;99.90;;;;;;5056981;28;20184;-81
2024/02/12 02:02:44;;;;;;;20.15;5.80;;;9.20;99.90;;;;;;5075138;28;20256;-81
2024/02/12 02:05:12;;;;;;;17.80;5.30;;;9.20;99.90;;;;;;5057140;28;20215;-82
2024/02/12 02:07:38;;;;;;;19.77;5.93;;;9.20;99.90;;;;;;5074404;28;20669;-82
2024/02/12 02:10:09;;;;;;;22.73;5.45;;;9.20;99.90;;;;;;5075372;28;20720;-81
2024/02/12 02:12:36;;;;;;;20.98;5.78;;;9.30;99.90;;;;;;5074753;28;20153;-81
2024/02/12 02:15:02;;;;;;;23.17;6.40;;;9.30;99.90;;;;;;5075305;28;20161;-81
2024/02/12 02:17:28;;;;;;;19.80;5.93;;;9.30;99.90;;;;;;5075039;28;20310;-81
2024/02/12 02:19:54;;;;;;;19.20;5.37;;;9.20;99.90;;;;;;5075004;28;22522;-81
2024/02/12 02:22:20;;;;;;;17.90;5.57;;;9.20;99.90;;;;;;5076173;28;20188;-82
2024/02/12 02:24:46;;;;;;;20.87;5.47;;;9.20;99.90;;;;;;5056840;28;20214;-82
2024/02/12 02:27:11;;;;;;;22.00;5.63;;;9.20;99.90;;;;;;5056994;28;20192;-81
2024/02/12 02:29:37;;;;;;;19.80;6.00;;;9.20;99.90;;;;;;5075965;28;20214;-81
2024/02/12 02:32:06;;;;;;;20.17;5.50;;;9.20;99.90;;;;;;5075486;28;20249;-81
2024/02/12 02:34:32;;;;;;;21.95;5.43;;;9.10;99.90;;;;;;5074542;28;20171;-81
2024/02/12 02:36:58;;;;;;;20.80;5.93;;;9.10;99.90;;;;;;5074098;28;20239;-81
2024/02/12 02:39:23;;;;;;;19.45;5.97;;;9.10;99.90;;;;;;5057442;28;20624;-82
2024/02/12 02:41:49;;;;;;;20.97;6.57;;;9.10;99.90;;;;;;5074983;28;20184;-81
2024/02/12 02:44:18;;;;;;;22.53;6.10;;;9.10;99.90;;;;;;5074702;28;20192;-81
2024/02/12 02:46:44;;;;;;;23.88;6.35;;;9.10;99.90;;;;;;5075283;28;20438;-81
2024/02/12 02:49:12;;;;;;;22.63;7.53;;;9.10;99.90;;;;;;5074283;28;20157;-81
2024/02/12 02:51:38;;;;;;;24.58;7.07;;;9.10;99.90;;;;;;5060170;28;20834;-81
2024/02/12 02:54:04;;;;;;;22.70;7.57;;;9.10;99.90;;;;;;5078818;28;20203;-81
2024/02/12 02:56:30;;;;;;;25.38;8.75;;;9.10;99.90;;;;;;5078249;28;20767;-81
2024/02/12 02:58:55;;;;;;;21.93;7.90;;;9.00;99.90;;;;;;5060367;28;20188;-81
2024/02/12 03:01:21;;;;;;;26.43;8.27;;;9.10;99.90;;;;;;5078189;28;20443;-81
2024/02/12 03:03:51;;;;;;;26.90;9.37;;;9.00;99.90;;;;;;5077777;28;20156;-81
2024/02/12 03:06:21;;;;;;;25.10;9.15;;;9.00;99.90;;;;;;5078050;28;20171;-81
2024/02/12 03:08:50;;;;;;;23.60;8.52;;;9.00;99.90;;;;;;5060053;28;20737;-81
2024/02/12 03:11:26;;;;;;;27.33;10.30;;;9.00;99.90;;;;;;5078415;28;20173;-81
2024/02/12 03:13:52;;;;;;;25.08;8.77;;;9.10;99.90;;;;;;5060545;28;20164;-81
2024/02/12 03:16:18;;;;;;;24.30;8.32;;;9.10;99.90;;;;;;5078713;28;20168;-81
2024/02/12 03:18:45;;;;;;;26.02;9.45;;;9.10;99.90;;;;;;5059738;28;20188;-82
2024/02/12 03:21:12;;;;;;;26.88;9.20;;;9.10;99.90;;;;;;5077909;28;20238;-81
2024/02/12 03:23:37;;;;;;;27.90;9.00;;;9.10;99.90;;;;;;5078158;28;20704;-81
2024/02/12 03:26:06;;;;;;;27.90;10.50;;;9.00;99.90;;;;;;5059578;28;20270;-81
2024/02/12 03:28:35;;;;;;;24.63;8.20;;;9.00;99.90;;;;;;5060579;28;20191;-81
2024/02/12 03:31:01;;;;;;;22.30;8.52;;;9.00;99.90;;;;;;5077297;28;20247;-81
2024/02/12 03:33:27;;;;;;;29.00;9.35;;;9.10;99.90;;;;;;5078002;28;20557;-81
2024/02/12 03:35:52;;;;;;;26.13;9.33;;;9.10;99.90;;;;;;5059782;28;20190;-81
2024/02/12 03:38:18;;;;;;;27.50;10.33;;;9.10;99.90;;;;;;5077786;28;20275;-82
2024/02/12 03:40:43;;;;;;;28.80;9.87;;;9.00;99.90;;;;;;5077508;28;20192;-81
2024/02/12 03:43:10;;;;;;;25.10;9.80;;;9.00;99.90;;;;;;5077346;28;20616;-81
2024/02/12 03:45:36;;;;;;;30.58;11.35;;;9.10;99.90;;;;;;5077017;28;20169;-81
2024/02/12 04:01:48;;;;;;;27.33;11.07;;;9.00;99.90;;;;;;5076310;28;20195;-81
2024/02/12 04:04:14;;;;;;;27.00;11.17;;;8.90;99.90;;;;;;5077661;28;20638;-81
2024/02/12 04:06:40;;;;;;;28.73;11.90;;;8.90;99.90;;;;;;5059451;28;20256;-81
2024/02/12 04:09:08;;;;;;;28.43;12.37;;;8.90;99.90;;;;;;5077172;28;20191;-81
2024/02/12 04:11:38;;;;;;;28.38;11.73;;;8.90;99.90;;;;;;5077147;28;20161;-82
2024/02/12 04:14:04;;;;;;;26.23;10.82;;;8.90;99.90;;;;;;5077248;28;20167;-81
2024/02/12 04:16:30;;;;;;;31.20;11.90;;;8.90;99.90;;;;;;5076799;28;20161;-81
2024/02/12 04:18:55;;;;;;;26.35;11.10;;;8.90;99.90;;;;;;5077638;28;20658;-81
2024/02/12 04:21:22;;;;;;;29.10;12.40;;;9.00;99.90;;;;;;5077107;28;20180;-81
2024/02/12 04:23:49;;;;;;;25.13;10.48;;;9.10;99.90;;;;;;5077467;28;20157;-81
2024/02/12 04:26:15;;;;;;;25.55;11.32;;;9.10;99.90;;;;;;5077032;28;20533;-82
2024/02/12 04:28:43;;;;;;;31.95;11.57;;;9.00;99.90;;;;;;5076677;28;20268;-81
2024/02/12 04:31:11;;;;;;;26.67;12.57;;;9.00;99.90;;;;;;5077379;28;20514;-81
2024/02/12 04:33:37;;;;;;;27.38;10.70;;;9.00;99.90;;;;;;5076483;28;20188;-81
2024/02/12 04:36:04;;;;;;;32.90;11.02;;;9.00;99.90;;;;;;5058761;28;20180;-81
2024/02/12 04:38:33;;;;;;;34.08;12.52;;;9.00;99.90;;;;;;5078139;28;20200;-81
2024/02/12 04:40:59;;;;;;;25.60;10.05;;;9.00;99.90;;;;;;5057664;28;20196;-81
2024/02/12 04:43:25;;;;;;;27.80;10.32;;;9.00;99.90;;;;;;5058275;28;20171;-81
2024/02/12 04:45:54;;;;;;;29.30;12.10;;;9.00;99.90;;;;;;5076228;28;20223;-82
2024/02/12 04:48:21;;;;;;;32.78;11.10;;;8.90;99.90;;;;;;5075609;28;20180;-81
2024/02/12 04:50:47;;;;;;;30.33;11.23;;;8.90;99.90;;;;;;5076130;28;20164;-81
2024/02/12 04:53:13;;;;;;;27.70;10.65;;;8.90;99.90;;;;;;5075362;28;20172;-82
2024/02/12 04:55:38;;;;;;;30.67;11.30;;;8.80;99.90;;;;;;5057862;28;20172;-82
2024/02/12 04:58:04;;;;;;;25.00;8.27;;;8.80;99.90;;;;;;5058365;28;20187;-81
2024/02/12 05:00:33;;;;;;;27.07;9.83;;;8.90;99.90;;;;;;5076419;28;20199;-81
2024/02/12 05:02:59;;;;;;;28.63;10.05;;;8.90;99.90;;;;;;5076359;28;20904;-82
2024/02/12 05:05:27;;;;;;;28.87;10.40;;;8.90;99.90;;;;;;5077050;28;20255;-81
2024/02/12 05:07:53;;;;;;;29.58;10.60;;;8.90;99.90;;;;;;5057744;28;20433;-81
2024/02/12 05:10:20;;;;;;;27.25;9.40;;;8.90;99.90;;;;;;5075577;28;20175;-81
2024/02/12 05:12:47;;;;;;;24.73;10.00;;;8.90;99.90;;;;;;5057716;28;20172;-81
2024/02/12 05:15:13;;;;;;;32.28;11.02;;;8.90;99.90;;;;;;5058591;28;20645;-81
2024/02/12 05:17:52;;;;;;;26.73;9.45;;;8.90;99.90;;;;;;5057839;28;20192;-82
2024/02/12 05:23:03;;;;;;;33.33;10.48;;;8.90;99.90;;;;;;5076309;28;20156;-82
2024/02/12 05:25:30;;;;;;;30.23;11.45;;;8.90;99.90;;;;;;5076791;28;20161;-81
2024/02/12 05:27:55;;;;;;;29.30;11.00;;;8.90;99.90;;;;;;5075598;28;20252;-81
2024/02/12 05:30:23;;;;;;;29.83;10.43;;;8.90;99.90;;;;;;5057899;28;20172;-82
2024/02/12 05:32:49;;;;;;;28.35;9.55;;;8.90;99.90;;;;;;5075812;28;20175;-81
2024/02/12 05:35:15;;;;;;;31.25;10.95;;;9.00;99.90;;;;;;5075860;28;20216;-81
2024/02/12 05:37:40;;;;;;;32.37;10.37;;;8.90;99.90;;;;;;5075074;28;20192;-81
2024/02/12 05:40:07;;;;;;;26.60;10.23;;;8.90;99.90;;;;;;5076021;28;20260;-82
2024/02/12 05:42:33;;;;;;;27.48;10.70;;;8.90;99.90;;;;;;5076080;28;20188;-81
2024/02/12 05:44:59;;;;;;;30.83;10.48;;;8.90;99.90;;;;;;5076013;28;20222;-81
2024/02/12 05:47:24;;;;;;;27.30;9.63;;;8.90;99.90;;;;;;5057703;28;20185;-81
2024/02/12 05:49:50;;;;;;;28.10;9.63;;;8.90;99.90;;;;;;5076260;28;20251;-82
2024/02/12 05:52:16;;;;;;;36.17;10.63;;;8.90;99.90;;;;;;5075722;28;20160;-81
2024/02/12 05:54:42;;;;;;;27.33;9.20;;;9.00;99.90;;;;;;5075881;28;20160;-82
2024/02/12 05:57:09;;;;;;;31.00;11.70;;;8.90;99.90;;;;;;5076270;28;20180;-82
2024/02/12 05:59:35;;;;;;;29.45;11.18;;;9.00;99.90;;;;;;5057703;28;20402;-82
2024/02/12 06:02:04;;;;;;;32.15;10.40;;;8.90;99.90;;;;;;5075946;28;20620;-81
2024/02/12 06:04:31;;;;;;;30.23;11.48;;;8.90;99.90;;;;;;5056790;28;20214;-82
2024/02/12 06:06:58;;;;;;;31.13;10.40;;;8.80;99.90;;;;;;5057527;28;20172;-82
2024/02/12 06:09:24;;;;;;;32.20;11.00;;;8.80;99.90;;;;;;5075090;28;20251;-82
2024/02/12 06:11:50;;;;;;;31.97;10.80;;;8.90;99.90;;;;;;5075562;28;20208;-81
2024/02/12 06:14:16;;;;;;;31.33;13.10;;;8.90;99.90;;;;;;5075597;28;20436;-82
2024/02/12 06:16:42;;;;;;;28.77;10.98;;;8.80;99.90;;;;;;5056943;28;20489;-82
2024/02/12 06:19:08;;;;;;;32.20;11.50;;;8.80;99.90;;;;;;5075263;28;20241;-82
2024/02/12 06:21:35;;;;;;;36.30;13.10;;;8.70;99.90;;;;;;5074935;28;20191;-82
2024/02/12 06:24:03;;;;;;;29.30;11.40;;;8.70;99.90;;;;;;5057335;28;20537;-82
2024/02/12 06:26:28;;;;;;;28.63;10.90;;;8.80;99.90;;;;;;5079365;28;20218;-82
2024/02/12 06:28:54;;;;;;;25.63;9.03;;;8.80;99.90;;;;;;5078409;28;20180;-82
2024/02/12 06:31:20;;;;;;;31.63;13.43;;;8.70;99.90;;;;;;5080663;28;20188;-82
2024/02/12 06:33:45;;;;;;;35.63;11.90;;;8.60;99.90;;;;;;5062828;28;20172;-82
2024/02/12 06:36:11;;;;;;;31.33;11.47;;;8.70;99.90;;;;;;5080694;28;20615;-82
2024/02/12 06:38:38;;;;;;;29.20;11.30;;;8.60;99.90;;;;;;5062306;28;20562;-82
2024/02/12 06:41:04;;;;;;;31.05;12.25;;;8.60;99.90;;;;;;5062400;28;20192;-82
2024/02/12 06:43:30;;;;;;;28.13;11.73;;;8.60;99.90;;;;;;5080203;28;20199;-81
2024/02/12 06:45:55;;;;;;;39.70;12.87;;;8.60;99.90;;;;;;5080891;28;20164;-82
2024/02/12 06:48:21;;;;;;;30.80;11.53;;;8.60;99.90;;;;;;5063061;28;20411;-82
2024/02/12 06:50:47;;;;;;;31.17;11.50;;;8.60;99.90;;;;;;5062789;28;20238;-82
2024/02/12 06:53:14;;;;;;;34.03;12.70;;;8.60;99.90;;;;;;5080486;28;20641;-81
2024/02/12 06:55:39;;;;;;;39.88;13.30;;;8.60;99.90;;;;;;5080464;28;20160;-81
2024/02/12 06:58:07;;;;;;;36.63;13.20;;;8.50;99.90;;;;;;5061513;28;20188;-82
2024/02/12 07:00:34;;;;;;;32.53;12.80;;;8.50;99.90;;;;;;5079811;28;20181;-83
2024/02/12 07:03:02;;;;;;;33.03;11.88;;;8.50;99.90;;;;;;5080092;28;20157;-82
2024/02/12 07:05:28;;;;;;;32.13;12.68;;;8.50;99.90;;;;;;5061856;28;20169;-82
2024/02/12 07:07:55;;;;;;;38.17;12.57;;;8.50;99.90;;;;;;5060940;28;20187;-81
2024/02/12 07:10:23;;;;;;;31.83;11.60;;;8.60;99.90;;;;;;5061388;28;20168;-82
2024/02/12 07:12:49;;;;;;;34.95;14.45;;;8.60;99.90;;;;;;5079439;28;20160;-82
2024/02/12 07:15:15;;;;;;;45.53;12.55;;;8.60;99.90;;;;;;5062112;28;20537;-81
2024/02/12 07:17:40;;;;;;;32.10;10.83;;;8.60;99.90;;;;;;5061591;28;20189;-81
2024/02/12 07:20:08;;;;;;;36.83;12.70;;;8.60;99.90;;;;;;5079323;28;20181;-82
2024/02/12 07:22:34;;;;;;;37.75;12.05;;;8.60;99.90;;;;;;5080612;28;20195;-81
2024/02/12 07:25:00;;;;;;;30.50;11.40;;;8.50;99.90;;;;;;5079550;28;20161;-82
2024/02/12 07:27:29;;;;;;;33.20;13.67;;;8.60;99.90;;;;;;5079049;28;20211;-81
2024/02/12 07:29:55;;;;;;;29.48;11.93;;;8.50;99.90;;;;;;5061372;28;20190;-83
2024/02/12 07:32:21;;;;;;;32.35;13.00;;;8.60;99.90;;;;;;5079500;28;20232;-82
2024/02/12 07:34:47;;;;;;;35.50;13.20;;;8.60;99.90;;;;;;5079932;28;20278;-81
2024/02/12 07:37:13;;;;;;;25.33;11.18;;;8.70;99.90;;;;;;5078640;28;20457;-82
2024/02/12 07:39:39;;;;;;;39.17;12.07;;;8.80;99.90;;;;;;5080288;28;20545;-82
2024/02/12 07:42:12;;;;;;;32.65;11.40;;;8.80;99.90;;;;;;5080345;28;20184;-81
2024/02/12 07:44:38;;;;;;;29.38;11.52;;;8.80;99.90;;;;;;5061788;28;20165;-81
2024/02/12 07:47:05;;;;;;;35.53;11.27;;;8.80;99.90;;;;;;5079528;28;20181;-82
2024/02/12 07:49:31;;;;;;;35.10;11.55;;;8.70;99.90;;;;;;5080000;28;20184;-81
2024/02/12 07:51:59;;;;;;;30.77;11.73;;;8.70;99.90;;;;;;5080072;28;20164;-82
2024/02/12 07:54:26;;;;;;;29.10;11.05;;;8.70;99.90;;;;;;5083784;28;20642;-83
2024/02/12 07:56:53;;;;;;;36.85;10.70;;;8.80;99.90;;;;;;5062738;28;20668;-81
2024/02/12 07:59:19;;;;;;;30.00;10.70;;;8.80;99.90;;;;;;5079099;28;20173;-81
2024/02/12 08:01:45;;;;;;;28.80;9.50;;;8.70;99.90;;;;;;5080223;28;20187;-82
2024/02/12 08:04:12;;;;;;;30.83;10.60;;;8.80;99.90;;;;;;5065794;28;20149;-83
2024/02/12 08:06:38;;;;;;;27.25;10.30;;;8.70;99.90;;;;;;5087530;28;20421;-83
2024/02/12 08:09:04;;;;;;;33.78;11.02;;;8.70;99.90;;;;;;5067092;28;20192;-82
2024/02/12 08:11:30;;;;;;;35.53;11.37;;;8.60;99.90;;;;;;5083828;28;20177;-82
2024/02/12 08:13:56;;;;;;;32.40;11.32;;;8.60;99.90;;;;;;5081991;28;20407;-82
2024/02/12 08:16:25;;;;;;;26.75;10.38;;;8.60;99.90;;;;;;5062474;28;20199;-82
2024/02/12 08:18:52;;;;;;;30.13;10.23;;;8.60;99.90;;;;;;5071227;28;20204;-83
2024/02/12 08:21:18;;;;;;;26.52;9.93;;;8.60;99.90;;;;;;5085661;28;20184;-81
2024/02/12 08:23:45;;;;;;;27.57;11.10;;;8.50;99.90;;;;;;5083714;28;20192;-82
2024/02/12 08:26:10;;;;;;;28.08;11.38;;;8.50;99.90;;;;;;5083974;28;20760;-82
2024/02/12 08:28:39;;;;;;;30.20;11.40;;;8.60;99.90;;;;;;5082903;28;20184;-81
2024/02/12 08:31:04;;;;;;;30.92;11.00;;;8.60;99.90;;;;;;5082361;28;20164;-82
2024/02/12 08:33:30;;;;;;;32.63;9.77;;;8.60;99.90;;;;;;5082346;28;20179;-82
2024/02/12 08:35:56;;;;;;;31.30;11.20;;;8.70;99.90;;;;;;5064335;28;20172;-82
2024/02/12 08:38:21;;;;;;;26.93;9.93;;;8.80;99.90;;;;;;5082299;28;20204;-81
2024/02/12 08:40:50;;;;;;;32.40;11.70;;;8.80;99.90;;;;;;5081825;28;20188;-82
2024/02/12 08:43:17;;;;;;;26.42;9.05;;;9.00;99.90;;;;;;5082423;28;20169;-81
2024/02/12 08:45:49;;;;;;;26.92;9.30;;;9.00;99.90;;;;;;5065685;28;20187;-82
2024/02/12 08:48:14;;;;;;;32.90;8.63;;;9.00;99.90;;;;;;5083789;28;20240;-81
2024/02/12 08:50:41;;;;;;;28.67;10.00;;;9.10;99.90;;;;;;5065513;28;20216;-82
2024/02/12 08:53:08;;;;;;;25.90;9.20;;;9.10;99.90;;;;;;5082977;28;20176;-83
2024/02/12 08:55:34;;;;;;;23.47;8.13;;;9.20;99.90;;;;;;5082672;28;20736;-81
2024/02/12 08:58:00;;;;;;;23.77;8.25;;;9.30;99.90;;;;;;5062746;28;20742;-82
2024/02/12 09:00:27;;;;;;;26.73;7.70;;;9.40;99.90;;;;;;5081609;28;20189;-82
2024/02/12 09:02:54;;;;;;;23.52;7.28;;;9.40;99.90;;;;;;5084133;28;20302;-82
2024/02/12 09:05:20;;;;;;;25.85;8.60;;;9.60;99.90;;;;;;5082813;28;20646;-81
2024/02/12 09:07:46;;;;;;;24.10;7.47;;;9.60;99.90;;;;;;5066039;28;20184;-81
2024/02/12 09:10:12;;;;;;;24.20;7.15;;;9.70;99.90;;;;;;5082996;28;20228;-81
2024/02/12 09:12:38;;;;;;;25.33;7.13;;;9.70;99.90;;;;;;5083757;28;20164;-81
2024/02/12 09:15:16;;;;;;;25.35;7.90;;;9.70;99.90;;;;;;5081232;28;20248;-82
2024/02/12 09:17:44;;;;;;;20.05;5.93;;;9.80;99.90;;;;;;5064053;28;20207;-82
2024/02/12 09:20:13;;;;;;;25.73;7.00;;;9.80;99.90;;;;;;5080881;28;20184;-81
2024/02/12 09:22:39;;;;;;;22.17;6.85;;;9.80;99.90;;;;;;5064623;28;20184;-83
2024/02/12 09:25:08;;;;;;;21.87;6.00;;;9.80;99.90;;;;;;5082281;28;20160;-82
2024/02/12 09:27:34;;;;;;;22.02;6.20;;;9.80;99.90;;;;;;5081783;28;20187;-82
2024/02/12 09:29:59;;;;;;;21.60;5.90;;;9.80;99.90;;;;;;5065449;28;20251;-83
2024/02/12 09:32:26;;;;;;;27.33;7.73;;;9.90;99.90;;;;;;5084585;28;20168;-82
2024/02/12 09:34:52;;;;;;;21.20;6.45;;;9.80;99.90;;;;;;5067739;28;20165;-81
2024/02/12 09:37:18;;;;;;;22.43;7.27;;;9.90;99.90;;;;;;5085528;28;20183;-83
2024/02/12 09:39:45;;;;;;;25.38;6.25;;;9.80;99.90;;;;;;5051254;28;20172;-82
2024/02/12 09:42:16;;;;;;;22.00;6.05;;;9.80;99.90;;;;;;5085434;28;20683;-82
2024/02/12 09:44:46;;;;;;;19.63;5.40;;;9.70;99.90;;;;;;5085193;28;20145;-82
2024/02/12 09:47:16;;;;;;;22.42;5.80;;;9.70;99.90;;;;;;5050080;28;20192;-82
2024/02/12 09:49:43;;;;;;;21.80;6.47;;;9.80;99.90;;;;;;5067294;28;20179;-83
2024/02/12 09:52:13;;;;;;;24.88;5.63;;;9.80;99.90;;;;;;5086395;28;20180;-82
2024/02/12 09:54:39;;;;;;;20.73;5.70;;;9.80;99.90;;;;;;5083647;28;20164;-83
2024/02/12 09:57:05;;;;;;;24.17;5.55;;;9.70;99.90;;;;;;5085548;28;20180;-83
2024/02/12 09:59:32;;;;;;;20.67;5.50;;;9.80;99.90;;;;;;5068022;28;20634;-82
2024/02/12 10:01:58;;;;;;;24.55;6.38;;;9.70;99.90;;;;;;5089919;28;20247;-82
2024/02/12 10:04:25;;;;;;;19.10;4.83;;;9.80;99.90;;;;;;5088516;28;20169;-83
2024/02/12 10:06:57;;;;;;;26.45;8.35;;;9.90;99.90;;;;;;5070735;28;20407;-81
2024/02/12 10:09:24;;;;;;;19.13;5.47;;;10.00;99.90;;;;;;5053736;28;20730;-82
2024/02/12 10:11:50;;;;;;;23.50;5.53;;;10.00;99.90;;;;;;5087441;28;20740;-81
2024/02/12 10:14:29;;;;;;;25.07;5.50;;;10.20;99.90;;;;;;5086393;28;20187;-82
2024/02/12 10:16:55;;;;;;;22.10;4.85;;;10.40;99.90;;;;;;5069118;28;20171;-82
2024/02/12 10:19:21;;;;;;;18.47;4.70;;;10.50;99.90;;;;;;5087987;28;20646;-82
2024/02/12 10:21:50;;;;;;;21.63;5.20;;;10.50;99.90;;;;;;5086282;28;20198;-82
2024/02/12 10:24:19;;;;;;;17.30;3.83;;;10.60;99.90;;;;;;5085969;28;20210;-82
2024/02/12 10:26:49;;;;;;;19.00;4.75;;;10.80;99.90;;;;;;5085768;28;20656;-82
2024/02/12 10:29:16;;;;;;;18.83;4.13;;;10.80;99.90;;;;;;5083152;28;20683;-83
2024/02/12 10:31:42;;;;;;;17.70;3.88;;;11.00;99.90;;;;;;5068048;28;20545;-82
2024/02/12 10:34:09;;;;;;;17.30;3.70;;;11.10;99.90;;;;;;5084854;28;20161;-81
2024/02/12 10:36:35;;;;;;;19.20;3.63;;;11.20;99.10;;;;;;5083564;28;20171;-83
2024/02/12 10:39:04;;;;;;;19.50;3.40;;;11.40;96.40;;;;;;5085259;28;20196;-82
2024/02/12 10:41:33;;;;;;;18.77;4.53;;;11.50;92.60;;;;;;5085932;28;20183;-83
2024/02/12 10:43:59;;;;;;;18.55;3.10;;;11.60;71.70;;;;;;5085050;28;20163;-83
2024/02/12 10:46:29;;;;;;;19.02;3.67;;;11.50;82.90;;;;;;5085938;28;20156;-83
2024/02/12 10:48:55;;;;;;;18.20;2.90;;;11.50;86.20;;;;;;5090429;28;20184;-84
2024/02/12 10:51:23;;;;;;;19.25;3.60;;;11.40;70.30;;;;;;5071189;28;20181;-83
2024/02/12 10:53:49;;;;;;;19.55;3.47;;;11.30;75.10;;;;;;5087701;28;20153;-84
2024/02/12 10:56:15;;;;;;;17.23;3.40;;;11.30;75.80;;;;;;5086795;28;20156;-83
2024/02/12 10:58:42;;;;;;;17.30;3.13;;;11.20;76.60;;;;;;5087151;28;20253;-83
2024/02/12 11:01:14;;;;;;;21.13;3.08;;;11.10;80.20;;;;;;5087286;28;20214;-83
2024/02/12 11:03:49;;;;;;;18.88;2.75;;;11.00;77.30;;;;;;5083357;28;20145;-81
2024/02/12 11:06:17;;;;;;;17.10;2.65;;;11.00;71.30;;;;;;5083241;28;20227;-84
2024/02/12 11:08:49;;;;;;;19.05;2.63;;;10.90;64.30;;;;;;5083177;28;20299;-83
2024/02/12 11:11:28;;;;;;;16.90;2.42;;;10.90;58.50;;;;;;5083168;28;20163;-83
2024/02/12 11:14:01;;;;;;;15.57;2.17;;;10.90;61.70;;;;;;5087094;28;20149;-83
2024/02/12 11:16:30;;;;;;;15.85;2.03;;;10.90;53.70;;;;;;5089239;28;20183;-82
2024/02/12 11:18:58;;;;;;;20.30;2.97;;;11.00;52.60;;;;;;5069095;28;20215;-83
2024/02/12 11:21:28;;;;;;;17.90;2.30;;;11.00;43.50;;;;;;5085899;28;20192;-83
2024/02/12 11:24:07;;;;;;;19.85;2.75;;;10.90;35.90;;;;;;5088223;28;20182;-82
2024/02/12 11:26:48;;;;;;;17.70;2.22;;;10.90;36.30;;;;;;5088170;28;20179;-83
2024/02/12 11:29:17;;;;;;;17.30;2.20;;;10.90;40.70;;;;;;5068643;28;20641;-82
2024/02/12 11:31:44;;;;;;;18.73;2.40;;;11.00;40.60;;;;;;5084998;28;20164;-84
2024/02/12 11:34:18;;;;;;;16.73;2.97;;;11.00;46.20;;;;;;5066332;28;20172;-83
2024/02/12 11:36:45;;;;;;;21.25;2.70;;;10.90;46.40;;;;;;5086047;28;20164;-82
2024/02/12 11:39:11;;;;;;;16.83;2.42;;;10.90;42.80;;;;;;5083994;28;20251;-83
2024/02/12 11:41:38;;;;;;;14.80;2.00;;;10.90;49.60;;;;;;5067735;28;20192;-83
2024/02/12 11:44:07;;;;;;;16.88;2.10;;;11.00;51.70;;;;;;5065861;28;20396;-83
2024/02/12 11:46:34;;;;;;;15.32;1.90;;;10.90;29.20;;;;;;5085116;28;20248;-83
2024/02/12 11:49:06;;;;;;;17.42;2.33;;;10.90;28.70;;;;;;5086440;28;20248;-83
2024/02/12 11:51:33;;;;;;;17.73;2.20;;;10.90;28.20;;;;;;5084099;28;20642;-83
2024/02/12 11:54:00;;;;;;;16.17;2.33;;;10.90;24.50;;;;;;5085312;28;20177;-82
2024/02/12 11:56:25;;;;;;;16.02;2.15;;;10.90;31.70;;;;;;5085222;28;20188;-82
2024/02/12 11:58:55;;;;;;;18.70;2.97;;;11.00;31.10;;;;;;5068900;28;20191;-82
2024/02/12 12:01:26;;;;;;;20.15;2.25;;;11.10;37.50;;;;;;5068415;28;20181;-83
2024/02/12 12:03:54;;;;;;;19.63;2.22;;;11.20;36.60;;;;;;5085145;28;20145;-84
2024/02/12 12:06:22;;;;;;;16.35;2.05;;;11.20;23.00;;;;;;5085944;28;20275;-82
2024/02/12 12:08:50;;;;;;;21.27;2.10;;;11.10;25.00;;;;;;5068894;28;20191;-84
2024/02/12 12:11:20;;;;;;;16.95;2.53;;;11.20;31.40;;;;;;5087585;28;20636;-83
2024/02/12 12:13:46;;;;;;;19.73;2.10;;;11.50;26.90;;;;;;5084566;28;20199;-82
2024/02/12 12:16:13;;;;;;;14.90;2.30;;;11.60;15.40;;;;;;5083134;28;20219;-83
2024/02/12 12:18:39;;;;;;;17.23;1.80;;;11.50;1.00;;;;;;5065840;28;20430;-82
2024/02/12 12:21:07;;;;;;;18.23;2.20;;;11.50;1.00;;;;;;5082829;28;20621;-83
2024/02/12 12:23:33;;;;;;;16.05;1.77;;;11.60;1.00;;;;;;5082927;28;20161;-83
2024/02/12 12:25:59;;;;;;;16.27;1.60;;;11.80;1.00;;;;;;5063641;28;20172;-83
2024/02/12 12:28:25;;;;;;;18.75;1.77;;;11.70;1.00;;;;;;5062604;28;20188;-82
2024/02/12 12:30:55;;;;;;;15.60;1.50;;;11.60;1.00;;;;;;5083291;28;20168;-84
2024/02/12 12:33:21;;;;;;;16.38;1.48;;;11.80;1.00;;;;;;5083335;28;20188;-82
2024/02/12 12:35:47;;;;;;;17.70;1.75;;;11.90;1.00;;;;;;5085522;28;20165;-84
2024/02/12 12:38:14;;;;;;;14.67;1.07;;;12.10;1.00;;;;;;5084884;28;20261;-82
2024/02/12 12:40:42;;;;;;;16.15;1.55;;;12.20;1.00;;;;;;5083911;28;20274;-83
2024/02/12 12:43:08;;;;;;;15.82;1.65;;;12.20;1.00;;;;;;5083370;28;20642;-82
2024/02/12 12:45:37;;;;;;;17.53;1.90;;;12.00;1.00;;;;;;5066757;28;20224;-83
2024/02/12 12:48:04;;;;;;;15.00;1.48;;;11.90;1.00;;;;;;5066981;28;20429;-84
2024/02/12 12:50:30;;;;;;;18.77;1.63;;;11.80;1.00;;;;;;5069779;28;20180;-84
2024/02/12 12:52:56;;;;;;;16.10;2.00;;;11.80;1.00;;;;;;5086811;28;20240;-83
2024/02/12 12:55:22;;;;;;;17.60;1.85;;;11.80;1.00;;;;;;5087902;28;20168;-83
2024/02/12 12:57:49;;;;;;;14.93;1.70;;;11.70;1.00;;;;;;5084285;28;20188;-83